sensor_id;sensor_type;location;lat;lon;timestamp;P1;durP1;ratioP1;P2;durP2;ratioP2
36315;SDS011;22343;50.820;2.666;2024-02-28T00:02:15;11.50;;;7.53;;
36315;SDS011;22343;50.820;2.666;2024-02-28T00:05:02;12.43;;;7.60;;
36315;SDS011;22343;50.820;2.666;2024-02-28T00:07:46;11.87;;;7.30;;
36315;SDS011;22343;50.820;2.666;2024-02-28T00:10:31;11.20;;;7.13;;
36315;SDS011;22343;50.820;2.666;2024-02-28T00:13:17;10.10;;;7.57;;
36315;SDS011;22343;50.820;2.666;2024-02-28T00:16:04;9.90;;;7.20;;
36315;SDS011;22343;50.820;2.666;2024-02-28T00:18:54;12.97;;;7.70;;
36315;SDS011;22343;50.820;2.666;2024-02-28T00:21:41;9.80;;;7.20;;
36315;SDS011;22343;50.820;2.666;2024-02-28T00:24:26;10.10;;;7.20;;
36315;SDS011;22343;50.820;2.666;2024-02-28T00:27:14;11.57;;;7.13;;
36315;SDS011;22343;50.820;2.666;2024-02-28T00:30:00;11.77;;;6.90;;
36315;SDS011;22343;50.820;2.666;2024-02-28T00:32:46;11.13;;;7.50;;
36315;SDS011;22343;50.820;2.666;2024-02-28T00:35:32;12.77;;;8.50;;
36315;SDS011;22343;50.820;2.666;2024-02-28T00:38:20;10.83;;;7.80;;
36315;SDS011;22343;50.820;2.666;2024-02-28T00:41:06;10.37;;;7.60;;
36315;SDS011;22343;50.820;2.666;2024-02-28T00:43:52;11.80;;;7.50;;
36315;SDS011;22343;50.820;2.666;2024-02-28T00:46:39;10.40;;;7.57;;
36315;SDS011;22343;50.820;2.666;2024-02-28T00:49:25;12.40;;;8.17;;
36315;SDS011;22343;50.820;2.666;2024-02-28T00:52:11;12.80;;;7.40;;
36315;SDS011;22343;50.820;2.666;2024-02-28T00:54:58;11.47;;;6.90;;
36315;SDS011;22343;50.820;2.666;2024-02-28T00:57:44;12.80;;;6.67;;
36315;SDS011;22343;50.820;2.666;2024-02-28T01:00:29;12.20;;;6.13;;
36315;SDS011;22343;50.820;2.666;2024-02-28T01:03:15;9.73;;;5.93;;
36315;SDS011;22343;50.820;2.666;2024-02-28T01:05:59;9.83;;;6.13;;
36315;SDS011;22343;50.820;2.666;2024-02-28T01:08:46;12.73;;;6.00;;
36315;SDS011;22343;50.820;2.666;2024-02-28T01:11:33;9.73;;;5.93;;
36315;SDS011;22343;50.820;2.666;2024-02-28T01:14:19;6.80;;;5.70;;
36315;SDS011;22343;50.820;2.666;2024-02-28T01:17:05;10.30;;;6.10;;
36315;SDS011;22343;50.820;2.666;2024-02-28T01:19:50;8.33;;;5.80;;
36315;SDS011;22343;50.820;2.666;2024-02-28T01:22:36;8.93;;;5.80;;
36315;SDS011;22343;50.820;2.666;2024-02-28T01:25:21;9.13;;;6.00;;
36315;SDS011;22343;50.820;2.666;2024-02-28T01:28:05;8.90;;;6.07;;
36315;SDS011;22343;50.820;2.666;2024-02-28T01:30:51;8.97;;;5.70;;
36315;SDS011;22343;50.820;2.666;2024-02-28T01:33:36;9.80;;;5.43;;
36315;SDS011;22343;50.820;2.666;2024-02-28T01:36:22;9.20;;;5.67;;
36315;SDS011;22343;50.820;2.666;2024-02-28T01:39:07;12.30;;;5.70;;
36315;SDS011;22343;50.820;2.666;2024-02-28T01:41:56;8.23;;;5.73;;
36315;SDS011;22343;50.820;2.666;2024-02-28T01:44:43;9.63;;;5.60;;
36315;SDS011;22343;50.820;2.666;2024-02-28T01:47:33;8.50;;;5.50;;
36315;SDS011;22343;50.820;2.666;2024-02-28T01:50:20;7.80;;;5.20;;
36315;SDS011;22343;50.820;2.666;2024-02-28T01:53:08;7.20;;;5.90;;
36315;SDS011;22343;50.820;2.666;2024-02-28T01:55:54;7.23;;;5.53;;
36315;SDS011;22343;50.820;2.666;2024-02-28T01:58:43;9.37;;;5.77;;
36315;SDS011;22343;50.820;2.666;2024-02-28T02:01:31;12.67;;;6.20;;
36315;SDS011;22343;50.820;2.666;2024-02-28T02:04:16;9.37;;;6.60;;
36315;SDS011;22343;50.820;2.666;2024-02-28T02:07:28;9.37;;;6.50;;
36315;SDS011;22343;50.820;2.666;2024-02-28T02:10:18;10.33;;;6.23;;
36315;SDS011;22343;50.820;2.666;2024-02-28T02:13:06;12.33;;;6.60;;
36315;SDS011;22343;50.820;2.666;2024-02-28T02:15:55;9.93;;;6.57;;
36315;SDS011;22343;50.820;2.666;2024-02-28T02:18:40;10.03;;;7.27;;
36315;SDS011;22343;50.820;2.666;2024-02-28T02:21:26;10.33;;;6.73;;
36315;SDS011;22343;50.820;2.666;2024-02-28T02:24:15;12.83;;;6.63;;
36315;SDS011;22343;50.820;2.666;2024-02-28T02:27:02;10.70;;;6.57;;
36315;SDS011;22343;50.820;2.666;2024-02-28T02:29:51;11.50;;;7.30;;
36315;SDS011;22343;50.820;2.666;2024-02-28T02:32:36;10.27;;;6.83;;
36315;SDS011;22343;50.820;2.666;2024-02-28T02:35:22;9.40;;;6.57;;
36315;SDS011;22343;50.820;2.666;2024-02-28T02:38:08;9.93;;;6.17;;
36315;SDS011;22343;50.820;2.666;2024-02-28T02:40:53;11.83;;;6.77;;
36315;SDS011;22343;50.820;2.666;2024-02-28T02:43:38;8.07;;;6.17;;
36315;SDS011;22343;50.820;2.666;2024-02-28T02:46:24;10.60;;;6.33;;
36315;SDS011;22343;50.820;2.666;2024-02-28T02:49:09;10.13;;;6.53;;
36315;SDS011;22343;50.820;2.666;2024-02-28T02:51:53;9.63;;;6.90;;
36315;SDS011;22343;50.820;2.666;2024-02-28T02:54:38;9.17;;;6.27;;
36315;SDS011;22343;50.820;2.666;2024-02-28T02:57:23;9.73;;;6.30;;
36315;SDS011;22343;50.820;2.666;2024-02-28T03:00:09;9.73;;;6.60;;
36315;SDS011;22343;50.820;2.666;2024-02-28T03:02:56;10.80;;;5.90;;
36315;SDS011;22343;50.820;2.666;2024-02-28T03:05:41;9.67;;;6.17;;
36315;SDS011;22343;50.820;2.666;2024-02-28T03:08:26;10.13;;;6.53;;
36315;SDS011;22343;50.820;2.666;2024-02-28T03:11:12;11.50;;;6.60;;
36315;SDS011;22343;50.820;2.666;2024-02-28T03:13:58;9.47;;;6.10;;
36315;SDS011;22343;50.820;2.666;2024-02-28T03:16:42;10.33;;;6.40;;
36315;SDS011;22343;50.820;2.666;2024-02-28T03:19:28;9.13;;;5.97;;
36315;SDS011;22343;50.820;2.666;2024-02-28T03:22:15;8.20;;;5.63;;
36315;SDS011;22343;50.820;2.666;2024-02-28T03:25:01;8.87;;;5.47;;
36315;SDS011;22343;50.820;2.666;2024-02-28T03:27:46;9.43;;;6.40;;
36315;SDS011;22343;50.820;2.666;2024-02-28T03:30:32;8.67;;;5.90;;
36315;SDS011;22343;50.820;2.666;2024-02-28T03:33:18;11.10;;;6.33;;
36315;SDS011;22343;50.820;2.666;2024-02-28T03:36:04;12.40;;;6.27;;
36315;SDS011;22343;50.820;2.666;2024-02-28T03:38:52;10.77;;;6.10;;
36315;SDS011;22343;50.820;2.666;2024-02-28T03:41:38;11.57;;;6.47;;
36315;SDS011;22343;50.820;2.666;2024-02-28T03:44:25;11.73;;;6.00;;
36315;SDS011;22343;50.820;2.666;2024-02-28T03:47:10;12.90;;;6.13;;
36315;SDS011;22343;50.820;2.666;2024-02-28T03:49:58;10.57;;;6.67;;
36315;SDS011;22343;50.820;2.666;2024-02-28T03:52:45;10.63;;;7.00;;
36315;SDS011;22343;50.820;2.666;2024-02-28T03:55:31;11.13;;;7.23;;
36315;SDS011;22343;50.820;2.666;2024-02-28T03:58:17;11.33;;;6.90;;
36315;SDS011;22343;50.820;2.666;2024-02-28T04:01:02;12.53;;;7.37;;
36315;SDS011;22343;50.820;2.666;2024-02-28T04:03:47;11.93;;;7.53;;
36315;SDS011;22343;50.820;2.666;2024-02-28T04:06:32;11.77;;;7.50;;
36315;SDS011;22343;50.820;2.666;2024-02-28T04:09:17;12.13;;;6.80;;
36315;SDS011;22343;50.820;2.666;2024-02-28T04:12:02;7.43;;;6.00;;
36315;SDS011;22343;50.820;2.666;2024-02-28T04:14:49;10.77;;;6.33;;
36315;SDS011;22343;50.820;2.666;2024-02-28T04:17:35;9.17;;;5.97;;
36315;SDS011;22343;50.820;2.666;2024-02-28T04:20:22;10.17;;;6.10;;
36315;SDS011;22343;50.820;2.666;2024-02-28T04:23:06;8.23;;;5.80;;
36315;SDS011;22343;50.820;2.666;2024-02-28T04:25:53;11.27;;;5.97;;
36315;SDS011;22343;50.820;2.666;2024-02-28T04:28:39;10.80;;;5.77;;
36315;SDS011;22343;50.820;2.666;2024-02-28T04:31:26;10.47;;;5.80;;
36315;SDS011;22343;50.820;2.666;2024-02-28T04:34:11;8.57;;;5.80;;
36315;SDS011;22343;50.820;2.666;2024-02-28T04:36:59;11.40;;;5.60;;
36315;SDS011;22343;50.820;2.666;2024-02-28T04:39:46;10.13;;;6.00;;
36315;SDS011;22343;50.820;2.666;2024-02-28T04:42:30;10.87;;;5.77;;
36315;SDS011;22343;50.820;2.666;2024-02-28T04:45:15;8.37;;;6.03;;
36315;SDS011;22343;50.820;2.666;2024-02-28T04:48:01;9.87;;;5.67;;
36315;SDS011;22343;50.820;2.666;2024-02-28T04:50:48;9.97;;;5.67;;
36315;SDS011;22343;50.820;2.666;2024-02-28T04:53:34;8.13;;;6.00;;
36315;SDS011;22343;50.820;2.666;2024-02-28T04:56:18;9.13;;;5.70;;
36315;SDS011;22343;50.820;2.666;2024-02-28T04:59:04;7.77;;;5.53;;
36315;SDS011;22343;50.820;2.666;2024-02-28T05:01:49;8.33;;;6.07;;
36315;SDS011;22343;50.820;2.666;2024-02-28T05:04:36;8.60;;;5.80;;
36315;SDS011;22343;50.820;2.666;2024-02-28T05:07:22;9.50;;;5.87;;
36315;SDS011;22343;50.820;2.666;2024-02-28T05:10:08;11.50;;;6.00;;
36315;SDS011;22343;50.820;2.666;2024-02-28T05:12:52;9.13;;;6.20;;
36315;SDS011;22343;50.820;2.666;2024-02-28T05:15:38;8.90;;;5.43;;
36315;SDS011;22343;50.820;2.666;2024-02-28T05:18:23;9.17;;;5.73;;
36315;SDS011;22343;50.820;2.666;2024-02-28T05:21:08;8.33;;;5.90;;
36315;SDS011;22343;50.820;2.666;2024-02-28T05:23:54;13.67;;;6.27;;
36315;SDS011;22343;50.820;2.666;2024-02-28T05:26:38;10.10;;;6.10;;
36315;SDS011;22343;50.820;2.666;2024-02-28T05:29:23;8.13;;;6.30;;
36315;SDS011;22343;50.820;2.666;2024-02-28T05:32:11;10.63;;;6.67;;
36315;SDS011;22343;50.820;2.666;2024-02-28T05:34:57;8.70;;;6.40;;
36315;SDS011;22343;50.820;2.666;2024-02-28T05:37:44;10.47;;;6.43;;
36315;SDS011;22343;50.820;2.666;2024-02-28T05:40:31;13.87;;;7.53;;
36315;SDS011;22343;50.820;2.666;2024-02-28T05:43:17;10.47;;;6.57;;
36315;SDS011;22343;50.820;2.666;2024-02-28T05:46:03;10.57;;;7.43;;
36315;SDS011;22343;50.820;2.666;2024-02-28T05:48:50;10.27;;;7.17;;
36315;SDS011;22343;50.820;2.666;2024-02-28T05:51:36;11.70;;;7.00;;
36315;SDS011;22343;50.820;2.666;2024-02-28T05:54:22;10.57;;;7.33;;
36315;SDS011;22343;50.820;2.666;2024-02-28T05:57:07;11.00;;;7.40;;
36315;SDS011;22343;50.820;2.666;2024-02-28T05:59:53;14.37;;;7.70;;
36315;SDS011;22343;50.820;2.666;2024-02-28T06:02:39;10.73;;;7.67;;
36315;SDS011;22343;50.820;2.666;2024-02-28T06:05:24;12.30;;;7.37;;
36315;SDS011;22343;50.820;2.666;2024-02-28T06:08:10;10.83;;;6.87;;
36315;SDS011;22343;50.820;2.666;2024-02-28T06:10:56;11.53;;;7.47;;
36315;SDS011;22343;50.820;2.666;2024-02-28T06:13:42;11.23;;;7.27;;
36315;SDS011;22343;50.820;2.666;2024-02-28T06:16:26;14.80;;;7.73;;
36315;SDS011;22343;50.820;2.666;2024-02-28T06:19:11;12.93;;;7.23;;
36315;SDS011;22343;50.820;2.666;2024-02-28T06:21:58;10.60;;;7.40;;
36315;SDS011;22343;50.820;2.666;2024-02-28T06:24:43;12.00;;;7.70;;
36315;SDS011;22343;50.820;2.666;2024-02-28T06:27:30;13.13;;;7.33;;
36315;SDS011;22343;50.820;2.666;2024-02-28T06:30:16;9.83;;;7.20;;
36315;SDS011;22343;50.820;2.666;2024-02-28T06:33:02;10.97;;;7.57;;
36315;SDS011;22343;50.820;2.666;2024-02-28T06:35:50;13.53;;;7.20;;
36315;SDS011;22343;50.820;2.666;2024-02-28T06:38:35;11.27;;;7.30;;
36315;SDS011;22343;50.820;2.666;2024-02-28T06:41:22;10.63;;;7.47;;
36315;SDS011;22343;50.820;2.666;2024-02-28T06:44:06;13.13;;;7.73;;
36315;SDS011;22343;50.820;2.666;2024-02-28T06:46:55;15.30;;;7.50;;
36315;SDS011;22343;50.820;2.666;2024-02-28T06:49:42;14.37;;;7.67;;
36315;SDS011;22343;50.820;2.666;2024-02-28T06:52:27;12.53;;;7.17;;
36315;SDS011;22343;50.820;2.666;2024-02-28T06:55:13;11.57;;;7.23;;
36315;SDS011;22343;50.820;2.666;2024-02-28T06:57:59;10.57;;;7.07;;
36315;SDS011;22343;50.820;2.666;2024-02-28T07:00:45;12.80;;;7.70;;
36315;SDS011;22343;50.820;2.666;2024-02-28T07:03:34;11.47;;;7.67;;
36315;SDS011;22343;50.820;2.666;2024-02-28T07:06:21;11.93;;;7.67;;
36315;SDS011;22343;50.820;2.666;2024-02-28T07:09:07;12.37;;;7.83;;
36315;SDS011;22343;50.820;2.666;2024-02-28T07:11:54;14.37;;;8.47;;
36315;SDS011;22343;50.820;2.666;2024-02-28T07:14:39;13.83;;;8.20;;
36315;SDS011;22343;50.820;2.666;2024-02-28T07:17:25;16.17;;;8.77;;
36315;SDS011;22343;50.820;2.666;2024-02-28T07:20:11;11.60;;;8.70;;
36315;SDS011;22343;50.820;2.666;2024-02-28T07:22:59;10.07;;;7.23;;
36315;SDS011;22343;50.820;2.666;2024-02-28T07:25:44;13.47;;;8.10;;
36315;SDS011;22343;50.820;2.666;2024-02-28T07:28:30;13.10;;;8.30;;
36315;SDS011;22343;50.820;2.666;2024-02-28T07:31:17;10.23;;;7.83;;
36315;SDS011;22343;50.820;2.666;2024-02-28T07:34:03;12.77;;;7.67;;
36315;SDS011;22343;50.820;2.666;2024-02-28T07:36:49;12.77;;;7.87;;
36315;SDS011;22343;50.820;2.666;2024-02-28T07:39:36;13.23;;;8.33;;
36315;SDS011;22343;50.820;2.666;2024-02-28T07:42:22;11.93;;;8.30;;
36315;SDS011;22343;50.820;2.666;2024-02-28T07:45:07;11.93;;;8.40;;
36315;SDS011;22343;50.820;2.666;2024-02-28T07:47:52;11.50;;;8.20;;
36315;SDS011;22343;50.820;2.666;2024-02-28T07:50:39;11.90;;;8.87;;
36315;SDS011;22343;50.820;2.666;2024-02-28T07:53:26;13.40;;;9.10;;
36315;SDS011;22343;50.820;2.666;2024-02-28T07:56:19;11.47;;;8.37;;
36315;SDS011;22343;50.820;2.666;2024-02-28T07:59:04;13.43;;;8.77;;
36315;SDS011;22343;50.820;2.666;2024-02-28T08:01:49;15.37;;;9.03;;
36315;SDS011;22343;50.820;2.666;2024-02-28T08:04:35;12.03;;;8.87;;
36315;SDS011;22343;50.820;2.666;2024-02-28T08:07:21;11.80;;;8.73;;
36315;SDS011;22343;50.820;2.666;2024-02-28T08:10:07;14.37;;;9.17;;
36315;SDS011;22343;50.820;2.666;2024-02-28T08:12:55;11.40;;;8.77;;
36315;SDS011;22343;50.820;2.666;2024-02-28T08:15:40;14.33;;;8.97;;
36315;SDS011;22343;50.820;2.666;2024-02-28T08:18:29;12.97;;;9.37;;
36315;SDS011;22343;50.820;2.666;2024-02-28T08:21:14;12.70;;;9.30;;
36315;SDS011;22343;50.820;2.666;2024-02-28T08:24:00;13.93;;;9.67;;
36315;SDS011;22343;50.820;2.666;2024-02-28T08:26:54;14.53;;;9.73;;
36315;SDS011;22343;50.820;2.666;2024-02-28T08:29:40;12.77;;;9.10;;
36315;SDS011;22343;50.820;2.666;2024-02-28T08:32:28;13.63;;;9.70;;
36315;SDS011;22343;50.820;2.666;2024-02-28T08:35:13;14.73;;;9.07;;
36315;SDS011;22343;50.820;2.666;2024-02-28T08:37:59;12.50;;;9.37;;
36315;SDS011;22343;50.820;2.666;2024-02-28T08:40:48;12.63;;;9.40;;
36315;SDS011;22343;50.820;2.666;2024-02-28T08:43:39;13.17;;;9.27;;
36315;SDS011;22343;50.820;2.666;2024-02-28T08:46:23;11.63;;;8.50;;
36315;SDS011;22343;50.820;2.666;2024-02-28T08:49:09;12.77;;;9.27;;
36315;SDS011;22343;50.820;2.666;2024-02-28T08:51:53;13.93;;;9.27;;
36315;SDS011;22343;50.820;2.666;2024-02-28T08:54:39;13.27;;;9.43;;
36315;SDS011;22343;50.820;2.666;2024-02-28T08:57:24;12.33;;;8.93;;
36315;SDS011;22343;50.820;2.666;2024-02-28T09:00:12;13.87;;;9.27;;
36315;SDS011;22343;50.820;2.666;2024-02-28T09:02:57;12.53;;;8.90;;
36315;SDS011;22343;50.820;2.666;2024-02-28T09:05:44;14.47;;;9.43;;
36315;SDS011;22343;50.820;2.666;2024-02-28T09:08:31;13.07;;;9.27;;
36315;SDS011;22343;50.820;2.666;2024-02-28T09:11:18;14.30;;;8.60;;
36315;SDS011;22343;50.820;2.666;2024-02-28T09:14:03;13.10;;;9.10;;
36315;SDS011;22343;50.820;2.666;2024-02-28T09:16:50;18.50;;;13.07;;
36315;SDS011;22343;50.820;2.666;2024-02-28T09:19:36;15.03;;;10.30;;
36315;SDS011;22343;50.820;2.666;2024-02-28T09:22:22;17.37;;;12.00;;
36315;SDS011;22343;50.820;2.666;2024-02-28T09:25:09;13.67;;;9.87;;
36315;SDS011;22343;50.820;2.666;2024-02-28T09:27:56;12.43;;;8.70;;
36315;SDS011;22343;50.820;2.666;2024-02-28T09:30:42;13.60;;;9.30;;
36315;SDS011;22343;50.820;2.666;2024-02-28T09:33:30;13.57;;;9.47;;
36315;SDS011;22343;50.820;2.666;2024-02-28T09:36:17;13.40;;;9.47;;
36315;SDS011;22343;50.820;2.666;2024-02-28T09:39:03;12.10;;;8.83;;
36315;SDS011;22343;50.820;2.666;2024-02-28T09:41:49;11.80;;;9.70;;
36315;SDS011;22343;50.820;2.666;2024-02-28T09:44:36;11.83;;;8.90;;
36315;SDS011;22343;50.820;2.666;2024-02-28T09:47:22;10.77;;;8.50;;
36315;SDS011;22343;50.820;2.666;2024-02-28T09:50:08;12.53;;;8.60;;
36315;SDS011;22343;50.820;2.666;2024-02-28T09:52:55;11.17;;;8.10;;
36315;SDS011;22343;50.820;2.666;2024-02-28T09:55:41;12.37;;;8.27;;
36315;SDS011;22343;50.820;2.666;2024-02-28T09:58:27;13.80;;;9.23;;
36315;SDS011;22343;50.820;2.666;2024-02-28T10:01:13;12.37;;;8.60;;
36315;SDS011;22343;50.820;2.666;2024-02-28T10:04:01;11.03;;;8.23;;
36315;SDS011;22343;50.820;2.666;2024-02-28T10:06:47;11.57;;;8.40;;
36315;SDS011;22343;50.820;2.666;2024-02-28T10:09:35;14.07;;;8.70;;
36315;SDS011;22343;50.820;2.666;2024-02-28T10:12:20;12.40;;;9.00;;
36315;SDS011;22343;50.820;2.666;2024-02-28T10:15:09;13.83;;;7.87;;
36315;SDS011;22343;50.820;2.666;2024-02-28T10:17:56;10.07;;;6.90;;
36315;SDS011;22343;50.820;2.666;2024-02-28T10:20:42;11.30;;;7.33;;
36315;SDS011;22343;50.820;2.666;2024-02-28T10:23:28;12.33;;;7.30;;
36315;SDS011;22343;50.820;2.666;2024-02-28T10:26:13;10.03;;;7.13;;
36315;SDS011;22343;50.820;2.666;2024-02-28T10:28:58;10.73;;;7.30;;
36315;SDS011;22343;50.820;2.666;2024-02-28T10:31:45;8.80;;;6.87;;
36315;SDS011;22343;50.820;2.666;2024-02-28T10:34:30;9.00;;;6.23;;
36315;SDS011;22343;50.820;2.666;2024-02-28T10:37:16;9.47;;;6.67;;
36315;SDS011;22343;50.820;2.666;2024-02-28T10:40:02;8.77;;;6.30;;
36315;SDS011;22343;50.820;2.666;2024-02-28T10:42:48;8.80;;;5.90;;
36315;SDS011;22343;50.820;2.666;2024-02-28T10:45:35;8.40;;;5.97;;
36315;SDS011;22343;50.820;2.666;2024-02-28T10:48:25;6.67;;;5.97;;
36315;SDS011;22343;50.820;2.666;2024-02-28T10:51:11;7.47;;;6.10;;
36315;SDS011;22343;50.820;2.666;2024-02-28T10:54:12;8.50;;;6.13;;
36315;SDS011;22343;50.820;2.666;2024-02-28T10:57:01;9.50;;;6.03;;
36315;SDS011;22343;50.820;2.666;2024-02-28T10:59:47;8.10;;;5.30;;
36315;SDS011;22343;50.820;2.666;2024-02-28T11:02:33;7.27;;;5.53;;
36315;SDS011;22343;50.820;2.666;2024-02-28T11:05:19;7.63;;;6.37;;
36315;SDS011;22343;50.820;2.666;2024-02-28T11:08:05;8.10;;;6.13;;
36315;SDS011;22343;50.820;2.666;2024-02-28T11:11:08;7.03;;;5.20;;
36315;SDS011;22343;50.820;2.666;2024-02-28T11:13:56;7.50;;;5.60;;
36315;SDS011;22343;50.820;2.666;2024-02-28T11:17:04;7.23;;;5.87;;
36315;SDS011;22343;50.820;2.666;2024-02-28T11:19:50;7.30;;;4.77;;
36315;SDS011;22343;50.820;2.666;2024-02-28T11:22:37;5.03;;;4.17;;
36315;SDS011;22343;50.820;2.666;2024-02-28T11:25:23;6.90;;;4.93;;
36315;SDS011;22343;50.820;2.666;2024-02-28T11:28:07;8.30;;;5.23;;
36315;SDS011;22343;50.820;2.666;2024-02-28T11:30:53;6.23;;;4.47;;
36315;SDS011;22343;50.820;2.666;2024-02-28T11:33:41;5.70;;;4.10;;
36315;SDS011;22343;50.820;2.666;2024-02-28T11:36:27;6.73;;;4.50;;
36315;SDS011;22343;50.820;2.666;2024-02-28T11:39:15;5.07;;;4.17;;
36315;SDS011;22343;50.820;2.666;2024-02-28T11:42:11;4.57;;;4.10;;
36315;SDS011;22343;50.820;2.666;2024-02-28T11:44:58;6.90;;;4.03;;
36315;SDS011;22343;50.820;2.666;2024-02-28T11:47:46;4.90;;;3.10;;
36315;SDS011;22343;50.820;2.666;2024-02-28T11:50:32;4.37;;;3.07;;
36315;SDS011;22343;50.820;2.666;2024-02-28T11:53:18;4.47;;;2.97;;
36315;SDS011;22343;50.820;2.666;2024-02-28T11:56:04;2.87;;;2.60;;
36315;SDS011;22343;50.820;2.666;2024-02-28T11:58:50;4.37;;;2.90;;
36315;SDS011;22343;50.820;2.666;2024-02-28T12:01:36;4.30;;;3.10;;
36315;SDS011;22343;50.820;2.666;2024-02-28T12:04:26;3.60;;;2.63;;
36315;SDS011;22343;50.820;2.666;2024-02-28T12:07:11;3.63;;;2.80;;
36315;SDS011;22343;50.820;2.666;2024-02-28T12:09:56;2.60;;;2.40;;
36315;SDS011;22343;50.820;2.666;2024-02-28T12:12:45;3.30;;;2.80;;
36315;SDS011;22343;50.820;2.666;2024-02-28T12:15:34;3.40;;;2.63;;
36315;SDS011;22343;50.820;2.666;2024-02-28T12:18:19;4.30;;;2.70;;
36315;SDS011;22343;50.820;2.666;2024-02-28T12:21:05;2.77;;;2.23;;
36315;SDS011;22343;50.820;2.666;2024-02-28T12:23:50;2.90;;;2.20;;
36315;SDS011;22343;50.820;2.666;2024-02-28T12:26:37;3.70;;;2.30;;
36315;SDS011;22343;50.820;2.666;2024-02-28T12:29:23;3.37;;;2.30;;
36315;SDS011;22343;50.820;2.666;2024-02-28T12:32:09;2.93;;;2.20;;
36315;SDS011;22343;50.820;2.666;2024-02-28T12:34:54;2.30;;;2.10;;
36315;SDS011;22343;50.820;2.666;2024-02-28T12:37:39;2.70;;;2.50;;
36315;SDS011;22343;50.820;2.666;2024-02-28T12:40:25;2.60;;;2.30;;
36315;SDS011;22343;50.820;2.666;2024-02-28T12:43:11;3.33;;;2.50;;
36315;SDS011;22343;50.820;2.666;2024-02-28T12:45:56;3.10;;;2.50;;
36315;SDS011;22343;50.820;2.666;2024-02-28T12:48:43;4.07;;;2.37;;
36315;SDS011;22343;50.820;2.666;2024-02-28T12:54:37;3.43;;;2.70;;
36315;SDS011;22343;50.820;2.666;2024-02-28T12:57:23;3.53;;;2.57;;
36315;SDS011;22343;50.820;2.666;2024-02-28T13:00:08;3.40;;;2.30;;
36315;SDS011;22343;50.820;2.666;2024-02-28T13:02:55;3.27;;;2.40;;
36315;SDS011;22343;50.820;2.666;2024-02-28T13:05:41;3.30;;;2.63;;
36315;SDS011;22343;50.820;2.666;2024-02-28T13:08:27;4.57;;;2.60;;
36315;SDS011;22343;50.820;2.666;2024-02-28T13:11:13;3.80;;;2.80;;
36315;SDS011;22343;50.820;2.666;2024-02-28T13:13:59;3.40;;;2.80;;
36315;SDS011;22343;50.820;2.666;2024-02-28T13:16:45;3.17;;;2.50;;
36315;SDS011;22343;50.820;2.666;2024-02-28T13:19:31;4.10;;;2.97;;
36315;SDS011;22343;50.820;2.666;2024-02-28T13:22:17;3.93;;;2.93;;
36315;SDS011;22343;50.820;2.666;2024-02-28T13:25:02;3.53;;;3.20;;
36315;SDS011;22343;50.820;2.666;2024-02-28T13:27:47;3.77;;;3.30;;
36315;SDS011;22343;50.820;2.666;2024-02-28T13:30:31;4.13;;;3.33;;
36315;SDS011;22343;50.820;2.666;2024-02-28T13:33:17;3.67;;;3.17;;
36315;SDS011;22343;50.820;2.666;2024-02-28T13:36:02;4.37;;;3.77;;
36315;SDS011;22343;50.820;2.666;2024-02-28T13:38:48;4.80;;;3.77;;
36315;SDS011;22343;50.820;2.666;2024-02-28T13:41:34;4.50;;;3.60;;
36315;SDS011;22343;50.820;2.666;2024-02-28T13:44:19;4.30;;;3.70;;
36315;SDS011;22343;50.820;2.666;2024-02-28T13:47:03;4.03;;;3.63;;
36315;SDS011;22343;50.820;2.666;2024-02-28T13:49:51;4.77;;;3.80;;
36315;SDS011;22343;50.820;2.666;2024-02-28T13:52:36;4.53;;;3.90;;
36315;SDS011;22343;50.820;2.666;2024-02-28T13:55:21;4.10;;;3.70;;
36315;SDS011;22343;50.820;2.666;2024-02-28T13:58:07;5.20;;;4.00;;
36315;SDS011;22343;50.820;2.666;2024-02-28T14:00:54;4.87;;;4.37;;
36315;SDS011;22343;50.820;2.666;2024-02-28T14:03:41;4.77;;;3.67;;
36315;SDS011;22343;50.820;2.666;2024-02-28T14:06:26;5.07;;;3.57;;
36315;SDS011;22343;50.820;2.666;2024-02-28T14:09:12;6.27;;;3.93;;
36315;SDS011;22343;50.820;2.666;2024-02-28T14:11:58;4.10;;;3.70;;
36315;SDS011;22343;50.820;2.666;2024-02-28T14:14:43;5.20;;;3.50;;
36315;SDS011;22343;50.820;2.666;2024-02-28T14:17:28;4.50;;;3.37;;
36315;SDS011;22343;50.820;2.666;2024-02-28T14:20:13;3.30;;;3.00;;
36315;SDS011;22343;50.820;2.666;2024-02-28T14:23:01;3.90;;;3.17;;
36315;SDS011;22343;50.820;2.666;2024-02-28T14:25:45;3.50;;;3.20;;
36315;SDS011;22343;50.820;2.666;2024-02-28T14:28:32;4.70;;;3.63;;
36315;SDS011;22343;50.820;2.666;2024-02-28T14:31:17;3.77;;;3.30;;
36315;SDS011;22343;50.820;2.666;2024-02-28T14:34:06;3.10;;;2.80;;
36315;SDS011;22343;50.820;2.666;2024-02-28T14:36:55;3.10;;;2.80;;
36315;SDS011;22343;50.820;2.666;2024-02-28T14:39:41;3.53;;;3.23;;
36315;SDS011;22343;50.820;2.666;2024-02-28T14:42:26;3.13;;;2.77;;
36315;SDS011;22343;50.820;2.666;2024-02-28T14:45:11;3.77;;;2.93;;
36315;SDS011;22343;50.820;2.666;2024-02-28T14:47:57;3.33;;;3.03;;
36315;SDS011;22343;50.820;2.666;2024-02-28T14:50:43;3.73;;;3.40;;
36315;SDS011;22343;50.820;2.666;2024-02-28T14:53:31;5.47;;;4.10;;
36315;SDS011;22343;50.820;2.666;2024-02-28T14:56:15;4.63;;;3.53;;
36315;SDS011;22343;50.820;2.666;2024-02-28T14:59:14;3.67;;;3.30;;
36315;SDS011;22343;50.820;2.666;2024-02-28T15:02:00;3.80;;;3.07;;
36315;SDS011;22343;50.820;2.666;2024-02-28T15:04:46;5.17;;;3.83;;
36315;SDS011;22343;50.820;2.666;2024-02-28T15:07:37;4.73;;;4.33;;
36315;SDS011;22343;50.820;2.666;2024-02-28T15:10:23;5.17;;;4.30;;
36315;SDS011;22343;50.820;2.666;2024-02-28T15:13:08;5.93;;;4.37;;
36315;SDS011;22343;50.820;2.666;2024-02-28T15:15:54;4.37;;;3.53;;
36315;SDS011;22343;50.820;2.666;2024-02-28T15:18:40;5.50;;;3.67;;
36315;SDS011;22343;50.820;2.666;2024-02-28T15:21:27;5.07;;;3.73;;
36315;SDS011;22343;50.820;2.666;2024-02-28T15:24:11;5.87;;;4.20;;
36315;SDS011;22343;50.820;2.666;2024-02-28T15:27:01;4.37;;;3.67;;
36315;SDS011;22343;50.820;2.666;2024-02-28T15:29:47;5.50;;;3.77;;
36315;SDS011;22343;50.820;2.666;2024-02-28T15:32:34;5.50;;;3.90;;
36315;SDS011;22343;50.820;2.666;2024-02-28T15:35:24;6.00;;;4.23;;
36315;SDS011;22343;50.820;2.666;2024-02-28T15:38:08;6.13;;;4.40;;
36315;SDS011;22343;50.820;2.666;2024-02-28T15:40:54;3.90;;;3.50;;
36315;SDS011;22343;50.820;2.666;2024-02-28T15:43:41;4.40;;;3.43;;
36315;SDS011;22343;50.820;2.666;2024-02-28T15:46:28;5.50;;;3.70;;
36315;SDS011;22343;50.820;2.666;2024-02-28T15:49:12;7.03;;;5.07;;
36315;SDS011;22343;50.820;2.666;2024-02-28T15:52:00;5.47;;;4.93;;
36315;SDS011;22343;50.820;2.666;2024-02-28T15:54:46;5.63;;;4.20;;
36315;SDS011;22343;50.820;2.666;2024-02-28T15:57:31;4.37;;;3.90;;
36315;SDS011;22343;50.820;2.666;2024-02-28T16:00:18;4.53;;;2.87;;
36315;SDS011;22343;50.820;2.666;2024-02-28T16:03:04;3.23;;;2.93;;
36315;SDS011;22343;50.820;2.666;2024-02-28T16:05:51;5.47;;;4.73;;
36315;SDS011;22343;50.820;2.666;2024-02-28T16:08:39;9.97;;;6.67;;
36315;SDS011;22343;50.820;2.666;2024-02-28T16:11:26;8.00;;;5.83;;
36315;SDS011;22343;50.820;2.666;2024-02-28T16:14:12;8.40;;;6.23;;
36315;SDS011;22343;50.820;2.666;2024-02-28T16:16:58;9.03;;;6.33;;
36315;SDS011;22343;50.820;2.666;2024-02-28T16:19:45;9.93;;;5.93;;
36315;SDS011;22343;50.820;2.666;2024-02-28T16:22:32;7.77;;;5.80;;
36315;SDS011;22343;50.820;2.666;2024-02-28T16:25:23;9.00;;;5.27;;
36315;SDS011;22343;50.820;2.666;2024-02-28T16:28:10;9.23;;;5.57;;
36315;SDS011;22343;50.820;2.666;2024-02-28T16:30:56;11.03;;;6.73;;
36315;SDS011;22343;50.820;2.666;2024-02-28T16:33:45;6.73;;;6.03;;
36315;SDS011;22343;50.820;2.666;2024-02-28T16:36:30;7.37;;;5.90;;
36315;SDS011;22343;50.820;2.666;2024-02-28T16:39:17;7.10;;;5.40;;